< < Back
Terminal Aerodrome Forecast


Current Version              Previous Versions:   1  2  3  4  5  6  7  8  9  

Terminal Aerodrome Forecast

532
FTUS42 KGSP 062130 AAA
TAFAVL
TAF AMD
KAVL 062130Z 0622/0718 34008G17KT P6SM VCSH SCT050
     FM062300 34006KT P6SM SCT070
     FM070700 00000KT 4SM BR FEW250
     FM070900 00000KT 2SM BR FEW070
     FM071300 00000KT P6SM FEW140=



Latest METAR

303
SAUS70 KWBC 070200 RRC
MTRAVL
METAR KAVL 070154Z 15003KT 10SM CLR 22/18 A3016 RMK AO2 SLP188
T02170178


USA.gov is the U.S. government's official web portal to all federal, state and local government web resources and services.